sensor_id;sensor_type;location;lat;lon;timestamp;P1;durP1;ratioP1;P2;durP2;ratioP2
76035;SDS011;64732;56.314;44.068;2024-03-02T00:00:17;47.72;;;22.63;;
76035;SDS011;64732;56.314;44.068;2024-03-02T00:02:39;55.90;;;24.10;;
76035;SDS011;64732;56.314;44.068;2024-03-02T00:05:03;68.10;;;27.23;;
76035;SDS011;64732;56.314;44.068;2024-03-02T00:07:24;68.88;;;27.08;;
76035;SDS011;64732;56.314;44.068;2024-03-02T00:09:45;51.10;;;25.05;;
76035;SDS011;64732;56.314;44.068;2024-03-02T00:12:06;59.22;;;26.00;;
76035;SDS011;64732;56.314;44.068;2024-03-02T00:14:28;53.63;;;24.23;;
76035;SDS011;64732;56.314;44.068;2024-03-02T00:16:49;62.85;;;28.00;;
76035;SDS011;64732;56.314;44.068;2024-03-02T00:19:11;60.67;;;27.20;;
76035;SDS011;64732;56.314;44.068;2024-03-02T00:21:34;68.20;;;28.58;;
76035;SDS011;64732;56.314;44.068;2024-03-02T00:23:55;59.15;;;28.13;;
76035;SDS011;64732;56.314;44.068;2024-03-02T00:26:16;67.75;;;28.33;;
76035;SDS011;64732;56.314;44.068;2024-03-02T00:28:36;63.90;;;28.23;;
76035;SDS011;64732;56.314;44.068;2024-03-02T00:30:58;71.38;;;30.55;;
76035;SDS011;64732;56.314;44.068;2024-03-02T00:33:19;65.03;;;28.73;;
76035;SDS011;64732;56.314;44.068;2024-03-02T00:35:39;69.30;;;27.58;;
76035;SDS011;64732;56.314;44.068;2024-03-02T00:38:06;60.63;;;28.58;;
76035;SDS011;64732;56.314;44.068;2024-03-02T00:40:27;66.93;;;29.88;;
76035;SDS011;64732;56.314;44.068;2024-03-02T00:42:48;67.13;;;29.40;;
76035;SDS011;64732;56.314;44.068;2024-03-02T00:45:09;83.07;;;33.30;;
76035;SDS011;64732;56.314;44.068;2024-03-02T00:47:30;70.25;;;30.33;;
76035;SDS011;64732;56.314;44.068;2024-03-02T00:49:50;88.57;;;32.90;;
76035;SDS011;64732;56.314;44.068;2024-03-02T00:52:12;88.57;;;33.22;;
76035;SDS011;64732;56.314;44.068;2024-03-02T00:54:36;85.07;;;32.67;;
76035;SDS011;64732;56.314;44.068;2024-03-02T00:56:56;117.85;;;33.38;;
76035;SDS011;64732;56.314;44.068;2024-03-02T00:59:17;127.60;;;33.65;;
76035;SDS011;64732;56.314;44.068;2024-03-02T01:01:38;126.70;;;34.17;;
76035;SDS011;64732;56.314;44.068;2024-03-02T01:03:59;243.30;;;38.90;;
76035;SDS011;64732;56.314;44.068;2024-03-02T01:06:19;97.15;;;33.08;;
76035;SDS011;64732;56.314;44.068;2024-03-02T01:08:40;151.80;;;34.13;;
76035;SDS011;64732;56.314;44.068;2024-03-02T01:11:03;176.27;;;37.80;;
76035;SDS011;64732;56.314;44.068;2024-03-02T01:13:24;162.02;;;36.00;;
76035;SDS011;64732;56.314;44.068;2024-03-02T01:15:46;122.85;;;32.85;;
76035;SDS011;64732;56.314;44.068;2024-03-02T01:18:06;145.07;;;34.20;;
76035;SDS011;64732;56.314;44.068;2024-03-02T01:20:28;98.22;;;33.25;;
76035;SDS011;64732;56.314;44.068;2024-03-02T01:22:49;100.82;;;30.20;;
76035;SDS011;64732;56.314;44.068;2024-03-02T01:25:10;111.63;;;34.50;;
76035;SDS011;64732;56.314;44.068;2024-03-02T01:27:33;95.68;;;33.25;;
76035;SDS011;64732;56.314;44.068;2024-03-02T01:29:53;373.77;;;42.25;;
76035;SDS011;64732;56.314;44.068;2024-03-02T01:32:14;260.52;;;36.30;;
76035;SDS011;64732;56.314;44.068;2024-03-02T01:34:35;374.20;;;41.95;;
76035;SDS011;64732;56.314;44.068;2024-03-02T01:36:55;175.82;;;34.92;;
76035;SDS011;64732;56.314;44.068;2024-03-02T01:39:16;285.88;;;37.40;;
76035;SDS011;64732;56.314;44.068;2024-03-02T01:41:37;284.40;;;39.90;;
76035;SDS011;64732;56.314;44.068;2024-03-02T01:44:00;197.30;;;35.65;;
76035;SDS011;64732;56.314;44.068;2024-03-02T01:46:22;180.40;;;36.65;;
76035;SDS011;64732;56.314;44.068;2024-03-02T01:48:42;166.15;;;35.05;;
76035;SDS011;64732;56.314;44.068;2024-03-02T01:51:03;162.40;;;34.42;;
76035;SDS011;64732;56.314;44.068;2024-03-02T01:53:24;202.05;;;32.90;;
76035;SDS011;64732;56.314;44.068;2024-03-02T01:55:45;109.10;;;32.88;;
76035;SDS011;64732;56.314;44.068;2024-03-02T01:58:05;248.13;;;35.95;;
76035;SDS011;64732;56.314;44.068;2024-03-02T02:00:29;123.38;;;31.02;;
76035;SDS011;64732;56.314;44.068;2024-03-02T02:02:50;126.40;;;30.25;;
76035;SDS011;64732;56.314;44.068;2024-03-02T02:05:10;160.98;;;29.58;;
76035;SDS011;64732;56.314;44.068;2024-03-02T02:07:31;119.72;;;28.73;;
76035;SDS011;64732;56.314;44.068;2024-03-02T02:09:52;119.32;;;28.42;;
76035;SDS011;64732;56.314;44.068;2024-03-02T02:12:12;241.48;;;33.70;;
76035;SDS011;64732;56.314;44.068;2024-03-02T02:14:33;207.82;;;30.70;;
76035;SDS011;64732;56.314;44.068;2024-03-02T02:16:57;92.00;;;27.88;;
76035;SDS011;64732;56.314;44.068;2024-03-02T02:19:18;107.90;;;28.20;;
76035;SDS011;64732;56.314;44.068;2024-03-02T02:21:41;191.57;;;32.70;;
76035;SDS011;64732;56.314;44.068;2024-03-02T02:24:02;157.90;;;29.23;;
76035;SDS011;64732;56.314;44.068;2024-03-02T02:26:23;119.57;;;29.95;;
76035;SDS011;64732;56.314;44.068;2024-03-02T02:28:43;353.85;;;34.58;;
76035;SDS011;64732;56.314;44.068;2024-03-02T02:31:04;110.25;;;29.42;;
76035;SDS011;64732;56.314;44.068;2024-03-02T02:33:26;111.93;;;28.35;;
76035;SDS011;64732;56.314;44.068;2024-03-02T02:35:47;120.25;;;29.27;;
76035;SDS011;64732;56.314;44.068;2024-03-02T02:38:10;103.82;;;27.67;;
76035;SDS011;64732;56.314;44.068;2024-03-02T02:40:31;92.25;;;27.67;;
76035;SDS011;64732;56.314;44.068;2024-03-02T02:42:51;101.75;;;28.05;;
76035;SDS011;64732;56.314;44.068;2024-03-02T02:45:12;86.78;;;27.13;;
76035;SDS011;64732;56.314;44.068;2024-03-02T02:47:33;76.43;;;27.70;;
76035;SDS011;64732;56.314;44.068;2024-03-02T02:49:54;95.03;;;28.13;;
76035;SDS011;64732;56.314;44.068;2024-03-02T02:52:14;92.40;;;29.80;;
76035;SDS011;64732;56.314;44.068;2024-03-02T02:54:38;81.10;;;28.67;;
76035;SDS011;64732;56.314;44.068;2024-03-02T02:56:58;80.55;;;29.08;;
76035;SDS011;64732;56.314;44.068;2024-03-02T02:59:19;75.88;;;26.02;;
76035;SDS011;64732;56.314;44.068;2024-03-02T03:01:39;86.90;;;30.77;;
76035;SDS011;64732;56.314;44.068;2024-03-02T03:04:00;101.78;;;31.52;;
76035;SDS011;64732;56.314;44.068;2024-03-02T03:06:21;80.80;;;27.83;;
76035;SDS011;64732;56.314;44.068;2024-03-02T03:08:41;78.63;;;28.02;;
76035;SDS011;64732;56.314;44.068;2024-03-02T03:11:05;86.97;;;29.17;;
76035;SDS011;64732;56.314;44.068;2024-03-02T03:13:28;111.20;;;39.25;;
76035;SDS011;64732;56.314;44.068;2024-03-02T03:15:57;93.07;;;33.92;;
76035;SDS011;64732;56.314;44.068;2024-03-02T03:18:18;70.43;;;24.48;;
76035;SDS011;64732;56.314;44.068;2024-03-02T03:20:38;64.65;;;27.40;;
76035;SDS011;64732;56.314;44.068;2024-03-02T03:22:59;68.00;;;25.00;;
76035;SDS011;64732;56.314;44.068;2024-03-02T03:25:20;67.07;;;25.63;;
76035;SDS011;64732;56.314;44.068;2024-03-02T03:27:43;68.03;;;25.20;;
76035;SDS011;64732;56.314;44.068;2024-03-02T03:30:04;80.22;;;29.42;;
76035;SDS011;64732;56.314;44.068;2024-03-02T03:32:25;90.57;;;30.33;;
76035;SDS011;64732;56.314;44.068;2024-03-02T03:34:46;101.10;;;36.35;;
76035;SDS011;64732;56.314;44.068;2024-03-02T03:37:06;88.60;;;32.83;;
76035;SDS011;64732;56.314;44.068;2024-03-02T03:39:27;87.28;;;31.65;;
76035;SDS011;64732;56.314;44.068;2024-03-02T03:41:48;91.93;;;27.80;;
76035;SDS011;64732;56.314;44.068;2024-03-02T03:44:11;85.72;;;28.27;;
76035;SDS011;64732;56.314;44.068;2024-03-02T03:46:32;77.68;;;27.80;;
76035;SDS011;64732;56.314;44.068;2024-03-02T03:48:52;87.18;;;29.27;;
76035;SDS011;64732;56.314;44.068;2024-03-02T03:51:13;84.20;;;26.38;;
76035;SDS011;64732;56.314;44.068;2024-03-02T03:53:33;82.95;;;28.38;;
76035;SDS011;64732;56.314;44.068;2024-03-02T03:55:54;98.30;;;36.40;;
76035;SDS011;64732;56.314;44.068;2024-03-02T03:58:15;76.10;;;26.67;;
76035;SDS011;64732;56.314;44.068;2024-03-02T04:00:38;89.13;;;30.17;;
76035;SDS011;64732;56.314;44.068;2024-03-02T04:02:59;79.43;;;29.63;;
76035;SDS011;64732;56.314;44.068;2024-03-02T04:05:19;80.05;;;29.67;;
76035;SDS011;64732;56.314;44.068;2024-03-02T04:07:40;86.60;;;30.30;;
76035;SDS011;64732;56.314;44.068;2024-03-02T04:10:01;93.65;;;31.65;;
76035;SDS011;64732;56.314;44.068;2024-03-02T04:12:21;83.40;;;28.50;;
76035;SDS011;64732;56.314;44.068;2024-03-02T04:14:42;88.97;;;31.42;;
76035;SDS011;64732;56.314;44.068;2024-03-02T04:17:05;84.43;;;30.75;;
76035;SDS011;64732;56.314;44.068;2024-03-02T04:19:29;81.45;;;29.70;;
76035;SDS011;64732;56.314;44.068;2024-03-02T04:21:49;90.00;;;32.42;;
76035;SDS011;64732;56.314;44.068;2024-03-02T04:24:10;82.03;;;29.13;;
76035;SDS011;64732;56.314;44.068;2024-03-02T04:26:31;130.43;;;49.85;;
76035;SDS011;64732;56.314;44.068;2024-03-02T04:28:51;104.40;;;41.63;;
76035;SDS011;64732;56.314;44.068;2024-03-02T04:31:12;106.45;;;39.60;;
76035;SDS011;64732;56.314;44.068;2024-03-02T04:33:35;90.55;;;34.35;;
76035;SDS011;64732;56.314;44.068;2024-03-02T04:35:56;103.07;;;33.45;;
76035;SDS011;64732;56.314;44.068;2024-03-02T04:38:16;96.57;;;32.50;;
76035;SDS011;64732;56.314;44.068;2024-03-02T04:40:37;87.78;;;31.20;;
76035;SDS011;64732;56.314;44.068;2024-03-02T04:43:00;94.03;;;34.47;;
76035;SDS011;64732;56.314;44.068;2024-03-02T04:45:20;88.70;;;30.60;;
76035;SDS011;64732;56.314;44.068;2024-03-02T04:47:41;86.97;;;31.77;;
76035;SDS011;64732;56.314;44.068;2024-03-02T04:50:07;87.57;;;32.80;;
76035;SDS011;64732;56.314;44.068;2024-03-02T04:52:27;84.80;;;32.55;;
76035;SDS011;64732;56.314;44.068;2024-03-02T04:54:48;75.80;;;30.52;;
76035;SDS011;64732;56.314;44.068;2024-03-02T04:57:09;84.25;;;31.33;;
76035;SDS011;64732;56.314;44.068;2024-03-02T04:59:29;80.82;;;30.90;;
76035;SDS011;64732;56.314;44.068;2024-03-02T05:01:50;85.95;;;28.58;;
76035;SDS011;64732;56.314;44.068;2024-03-02T05:04:11;85.82;;;29.17;;
76035;SDS011;64732;56.314;44.068;2024-03-02T05:06:34;83.72;;;28.27;;
76035;SDS011;64732;56.314;44.068;2024-03-02T05:08:54;89.93;;;28.73;;
76035;SDS011;64732;56.314;44.068;2024-03-02T05:11:15;92.82;;;31.13;;
76035;SDS011;64732;56.314;44.068;2024-03-02T05:13:36;88.07;;;30.33;;
76035;SDS011;64732;56.314;44.068;2024-03-02T05:15:57;94.70;;;28.92;;
76035;SDS011;64732;56.314;44.068;2024-03-02T05:18:17;104.10;;;28.25;;
76035;SDS011;64732;56.314;44.068;2024-03-02T05:20:38;84.68;;;28.25;;
76035;SDS011;64732;56.314;44.068;2024-03-02T05:23:02;89.43;;;28.00;;
76035;SDS011;64732;56.314;44.068;2024-03-02T05:25:23;98.25;;;28.63;;
76035;SDS011;64732;56.314;44.068;2024-03-02T05:27:45;78.10;;;27.05;;
76035;SDS011;64732;56.314;44.068;2024-03-02T05:30:06;83.32;;;30.17;;
76035;SDS011;64732;56.314;44.068;2024-03-02T05:32:27;112.15;;;42.47;;
76035;SDS011;64732;56.314;44.068;2024-03-02T05:34:53;113.97;;;40.13;;
76035;SDS011;64732;56.314;44.068;2024-03-02T05:37:14;112.25;;;39.78;;
76035;SDS011;64732;56.314;44.068;2024-03-02T05:39:37;87.10;;;32.03;;
76035;SDS011;64732;56.314;44.068;2024-03-02T05:41:58;82.57;;;27.48;;
76035;SDS011;64732;56.314;44.068;2024-03-02T05:44:19;100.55;;;35.25;;
76035;SDS011;64732;56.314;44.068;2024-03-02T05:46:39;73.93;;;29.48;;
76035;SDS011;64732;56.314;44.068;2024-03-02T05:49:01;71.05;;;27.08;;
76035;SDS011;64732;56.314;44.068;2024-03-02T05:51:22;79.50;;;30.92;;
76035;SDS011;64732;56.314;44.068;2024-03-02T05:53:43;75.13;;;30.23;;
76035;SDS011;64732;56.314;44.068;2024-03-02T05:56:06;96.43;;;37.63;;
76035;SDS011;64732;56.314;44.068;2024-03-02T05:58:27;96.65;;;39.08;;
76035;SDS011;64732;56.314;44.068;2024-03-02T06:00:47;90.35;;;35.63;;
76035;SDS011;64732;56.314;44.068;2024-03-02T06:03:08;84.82;;;31.23;;
76035;SDS011;64732;56.314;44.068;2024-03-02T06:05:29;83.70;;;30.50;;
76035;SDS011;64732;56.314;44.068;2024-03-02T06:07:49;74.82;;;29.23;;
76035;SDS011;64732;56.314;44.068;2024-03-02T06:10:10;73.43;;;30.23;;
76035;SDS011;64732;56.314;44.068;2024-03-02T06:12:33;77.20;;;31.15;;
76035;SDS011;64732;56.314;44.068;2024-03-02T06:14:54;76.32;;;32.33;;
76035;SDS011;64732;56.314;44.068;2024-03-02T06:17:14;79.20;;;33.13;;
76035;SDS011;64732;56.314;44.068;2024-03-02T06:19:35;76.53;;;29.70;;
76035;SDS011;64732;56.314;44.068;2024-03-02T06:21:56;69.47;;;29.05;;
76035;SDS011;64732;56.314;44.068;2024-03-02T06:24:17;72.78;;;29.88;;
76035;SDS011;64732;56.314;44.068;2024-03-02T06:26:37;76.78;;;33.38;;
76035;SDS011;64732;56.314;44.068;2024-03-02T06:29:00;69.97;;;30.77;;
76035;SDS011;64732;56.314;44.068;2024-03-02T06:31:21;75.80;;;30.48;;
76035;SDS011;64732;56.314;44.068;2024-03-02T06:33:42;66.90;;;29.38;;
76035;SDS011;64732;56.314;44.068;2024-03-02T06:36:03;71.93;;;29.42;;
76035;SDS011;64732;56.314;44.068;2024-03-02T06:38:24;68.18;;;31.23;;
76035;SDS011;64732;56.314;44.068;2024-03-02T06:40:44;68.95;;;31.10;;
76035;SDS011;64732;56.314;44.068;2024-03-02T06:43:05;73.43;;;31.10;;
76035;SDS011;64732;56.314;44.068;2024-03-02T06:45:28;67.78;;;29.85;;
76035;SDS011;64732;56.314;44.068;2024-03-02T06:47:49;71.18;;;31.48;;
76035;SDS011;64732;56.314;44.068;2024-03-02T06:50:10;70.72;;;31.55;;
76035;SDS011;64732;56.314;44.068;2024-03-02T06:52:30;81.13;;;34.25;;
76035;SDS011;64732;56.314;44.068;2024-03-02T06:54:51;80.75;;;35.17;;
76035;SDS011;64732;56.314;44.068;2024-03-02T06:57:12;79.43;;;34.05;;
76035;SDS011;64732;56.314;44.068;2024-03-02T06:59:32;74.60;;;32.40;;
76035;SDS011;64732;56.314;44.068;2024-03-02T07:01:57;72.82;;;32.55;;
76035;SDS011;64732;56.314;44.068;2024-03-02T07:04:17;74.88;;;32.53;;
76035;SDS011;64732;56.314;44.068;2024-03-02T07:06:38;80.53;;;32.83;;
76035;SDS011;64732;56.314;44.068;2024-03-02T07:08:59;70.40;;;31.58;;
76035;SDS011;64732;56.314;44.068;2024-03-02T07:11:19;69.90;;;30.85;;
76035;SDS011;64732;56.314;44.068;2024-03-02T07:13:40;66.80;;;30.83;;
76035;SDS011;64732;56.314;44.068;2024-03-02T07:16:00;69.38;;;30.23;;
76035;SDS011;64732;56.314;44.068;2024-03-02T07:18:24;64.05;;;28.58;;
76035;SDS011;64732;56.314;44.068;2024-03-02T07:20:44;65.97;;;27.63;;
76035;SDS011;64732;56.314;44.068;2024-03-02T07:23:05;60.95;;;27.83;;
76035;SDS011;64732;56.314;44.068;2024-03-02T07:25:26;59.95;;;27.80;;
76035;SDS011;64732;56.314;44.068;2024-03-02T07:27:46;62.85;;;28.30;;
76035;SDS011;64732;56.314;44.068;2024-03-02T07:30:07;61.47;;;30.00;;
76035;SDS011;64732;56.314;44.068;2024-03-02T07:32:28;62.88;;;28.58;;
76035;SDS011;64732;56.314;44.068;2024-03-02T07:34:51;59.58;;;26.73;;
76035;SDS011;64732;56.314;44.068;2024-03-02T07:37:12;53.90;;;26.13;;
76035;SDS011;64732;56.314;44.068;2024-03-02T07:39:32;61.92;;;28.92;;
76035;SDS011;64732;56.314;44.068;2024-03-02T07:41:53;78.57;;;33.80;;
76035;SDS011;64732;56.314;44.068;2024-03-02T07:44:14;71.95;;;34.10;;
76035;SDS011;64732;56.314;44.068;2024-03-02T07:46:35;77.72;;;34.13;;
76035;SDS011;64732;56.314;44.068;2024-03-02T07:48:55;67.07;;;30.40;;
76035;SDS011;64732;56.314;44.068;2024-03-02T07:51:19;58.25;;;28.58;;
76035;SDS011;64732;56.314;44.068;2024-03-02T07:53:39;55.05;;;26.63;;
76035;SDS011;64732;56.314;44.068;2024-03-02T07:56:00;56.80;;;26.58;;
76035;SDS011;64732;56.314;44.068;2024-03-02T07:58:21;62.17;;;30.38;;
76035;SDS011;64732;56.314;44.068;2024-03-02T08:00:41;58.47;;;28.27;;
76035;SDS011;64732;56.314;44.068;2024-03-02T08:03:02;58.70;;;27.85;;
76035;SDS011;64732;56.314;44.068;2024-03-02T08:05:23;54.08;;;26.77;;
76035;SDS011;64732;56.314;44.068;2024-03-02T08:07:46;54.90;;;27.02;;
76035;SDS011;64732;56.314;44.068;2024-03-02T08:10:07;52.67;;;25.15;;
76035;SDS011;64732;56.314;44.068;2024-03-02T08:12:28;50.28;;;25.55;;
76035;SDS011;64732;56.314;44.068;2024-03-02T08:14:49;53.15;;;25.65;;
76035;SDS011;64732;56.314;44.068;2024-03-02T08:17:09;53.17;;;26.85;;
76035;SDS011;64732;56.314;44.068;2024-03-02T08:19:30;49.55;;;25.35;;
76035;SDS011;64732;56.314;44.068;2024-03-02T08:21:50;51.90;;;25.00;;
76035;SDS011;64732;56.314;44.068;2024-03-02T08:24:14;57.00;;;27.30;;
76035;SDS011;64732;56.314;44.068;2024-03-02T08:26:34;53.00;;;25.98;;
76035;SDS011;64732;56.314;44.068;2024-03-02T08:28:55;57.00;;;27.63;;
76035;SDS011;64732;56.314;44.068;2024-03-02T08:31:16;62.22;;;27.90;;
76035;SDS011;64732;56.314;44.068;2024-03-02T08:33:36;54.75;;;28.73;;
76035;SDS011;64732;56.314;44.068;2024-03-02T08:35:57;52.38;;;26.25;;
76035;SDS011;64732;56.314;44.068;2024-03-02T08:38:18;57.53;;;27.13;;
76035;SDS011;64732;56.314;44.068;2024-03-02T08:40:41;57.47;;;26.55;;
76035;SDS011;64732;56.314;44.068;2024-03-02T08:43:02;54.45;;;26.80;;
76035;SDS011;64732;56.314;44.068;2024-03-02T08:45:23;56.20;;;27.98;;
76035;SDS011;64732;56.314;44.068;2024-03-02T08:47:44;63.45;;;29.00;;
76035;SDS011;64732;56.314;44.068;2024-03-02T08:50:05;55.60;;;27.30;;
76035;SDS011;64732;56.314;44.068;2024-03-02T08:52:26;48.65;;;25.40;;
76035;SDS011;64732;56.314;44.068;2024-03-02T08:54:47;56.80;;;25.55;;
76035;SDS011;64732;56.314;44.068;2024-03-02T08:57:10;56.47;;;27.02;;
76035;SDS011;64732;56.314;44.068;2024-03-02T08:59:31;50.45;;;25.67;;
76035;SDS011;64732;56.314;44.068;2024-03-02T09:01:52;53.45;;;27.48;;
76035;SDS011;64732;56.314;44.068;2024-03-02T09:04:13;48.80;;;24.75;;
76035;SDS011;64732;56.314;44.068;2024-03-02T09:06:33;48.67;;;25.55;;
76035;SDS011;64732;56.314;44.068;2024-03-02T09:08:54;49.97;;;27.23;;
76035;SDS011;64732;56.314;44.068;2024-03-02T09:11:14;44.30;;;23.23;;
76035;SDS011;64732;56.314;44.068;2024-03-02T09:13:38;47.00;;;24.63;;
76035;SDS011;64732;56.314;44.068;2024-03-02T09:15:58;50.10;;;26.33;;
76035;SDS011;64732;56.314;44.068;2024-03-02T09:18:19;47.42;;;25.48;;
76035;SDS011;64732;56.314;44.068;2024-03-02T09:20:41;57.72;;;27.77;;
76035;SDS011;64732;56.314;44.068;2024-03-02T09:23:01;42.83;;;23.88;;
76035;SDS011;64732;56.314;44.068;2024-03-02T09:25:22;41.80;;;22.67;;
76035;SDS011;64732;56.314;44.068;2024-03-02T09:27:43;50.13;;;24.23;;
76035;SDS011;64732;56.314;44.068;2024-03-02T09:30:07;47.47;;;23.58;;
76035;SDS011;64732;56.314;44.068;2024-03-02T09:32:28;41.38;;;22.58;;
76035;SDS011;64732;56.314;44.068;2024-03-02T09:34:48;46.25;;;23.25;;
76035;SDS011;64732;56.314;44.068;2024-03-02T09:37:09;40.22;;;22.60;;
76035;SDS011;64732;56.314;44.068;2024-03-02T09:39:30;43.03;;;22.73;;
76035;SDS011;64732;56.314;44.068;2024-03-02T09:41:50;38.45;;;21.92;;
76035;SDS011;64732;56.314;44.068;2024-03-02T09:44:12;40.28;;;21.10;;
76035;SDS011;64732;56.314;44.068;2024-03-02T09:46:35;40.10;;;22.38;;
76035;SDS011;64732;56.314;44.068;2024-03-02T09:48:56;43.50;;;24.00;;
76035;SDS011;64732;56.314;44.068;2024-03-02T09:51:17;45.40;;;23.35;;
76035;SDS011;64732;56.314;44.068;2024-03-02T09:53:41;45.08;;;23.77;;
76035;SDS011;64732;56.314;44.068;2024-03-02T09:56:02;49.88;;;26.38;;
76035;SDS011;64732;56.314;44.068;2024-03-02T09:58:23;48.58;;;24.23;;
76035;SDS011;64732;56.314;44.068;2024-03-02T10:00:43;51.25;;;26.55;;
76035;SDS011;64732;56.314;44.068;2024-03-02T10:03:08;46.97;;;26.23;;
76035;SDS011;64732;56.314;44.068;2024-03-02T10:05:31;52.55;;;25.58;;
76035;SDS011;64732;56.314;44.068;2024-03-02T10:07:58;52.42;;;25.23;;
76035;SDS011;64732;56.314;44.068;2024-03-02T10:10:19;50.00;;;25.70;;
76035;SDS011;64732;56.314;44.068;2024-03-02T10:12:40;55.78;;;27.13;;
76035;SDS011;64732;56.314;44.068;2024-03-02T10:15:02;56.28;;;27.42;;
76035;SDS011;64732;56.314;44.068;2024-03-02T10:17:23;56.10;;;28.15;;
76035;SDS011;64732;56.314;44.068;2024-03-02T10:19:54;51.20;;;26.48;;
76035;SDS011;64732;56.314;44.068;2024-03-02T10:22:14;47.40;;;25.25;;
76035;SDS011;64732;56.314;44.068;2024-03-02T10:24:35;45.40;;;24.67;;
76035;SDS011;64732;56.314;44.068;2024-03-02T10:26:56;54.17;;;25.83;;
76035;SDS011;64732;56.314;44.068;2024-03-02T10:29:17;49.67;;;25.38;;
76035;SDS011;64732;56.314;44.068;2024-03-02T10:31:38;49.70;;;25.92;;
76035;SDS011;64732;56.314;44.068;2024-03-02T10:33:59;49.80;;;26.42;;
76035;SDS011;64732;56.314;44.068;2024-03-02T10:36:22;44.92;;;24.45;;
76035;SDS011;64732;56.314;44.068;2024-03-02T10:38:43;47.00;;;24.08;;
76035;SDS011;64732;56.314;44.068;2024-03-02T10:41:05;51.67;;;26.65;;
76035;SDS011;64732;56.314;44.068;2024-03-02T10:43:28;46.05;;;24.27;;
76035;SDS011;64732;56.314;44.068;2024-03-02T10:45:49;43.10;;;22.27;;
76035;SDS011;64732;56.314;44.068;2024-03-02T10:48:10;44.75;;;22.73;;
76035;SDS011;64732;56.314;44.068;2024-03-02T10:50:30;45.90;;;20.85;;
76035;SDS011;64732;56.314;44.068;2024-03-02T10:52:54;46.92;;;23.50;;
76035;SDS011;64732;56.314;44.068;2024-03-02T10:55:15;49.75;;;23.33;;
76035;SDS011;64732;56.314;44.068;2024-03-02T10:57:42;44.92;;;23.00;;
76035;SDS011;64732;56.314;44.068;2024-03-02T11:00:06;39.85;;;20.92;;
76035;SDS011;64732;56.314;44.068;2024-03-02T11:02:28;44.20;;;21.10;;
76035;SDS011;64732;56.314;44.068;2024-03-02T11:04:50;43.50;;;20.98;;
76035;SDS011;64732;56.314;44.068;2024-03-02T11:07:14;44.65;;;21.73;;
76035;SDS011;64732;56.314;44.068;2024-03-02T11:09:38;41.05;;;21.13;;
76035;SDS011;64732;56.314;44.068;2024-03-02T11:12:02;44.78;;;22.27;;
76035;SDS011;64732;56.314;44.068;2024-03-02T11:14:24;47.20;;;21.85;;
76035;SDS011;64732;56.314;44.068;2024-03-02T11:16:51;46.88;;;21.83;;
76035;SDS011;64732;56.314;44.068;2024-03-02T11:19:16;43.72;;;21.98;;
76035;SDS011;64732;56.314;44.068;2024-03-02T11:21:37;47.17;;;22.55;;
76035;SDS011;64732;56.314;44.068;2024-03-02T11:23:58;46.22;;;22.08;;
76035;SDS011;64732;56.314;44.068;2024-03-02T11:26:21;46.22;;;22.50;;
76035;SDS011;64732;56.314;44.068;2024-03-02T11:28:42;41.70;;;20.70;;
76035;SDS011;64732;56.314;44.068;2024-03-02T11:31:03;43.40;;;22.02;;
76035;SDS011;64732;56.314;44.068;2024-03-02T11:33:24;49.15;;;22.63;;
76035;SDS011;64732;56.314;44.068;2024-03-02T11:35:45;45.00;;;20.85;;
76035;SDS011;64732;56.314;44.068;2024-03-02T11:38:06;43.70;;;22.17;;
76035;SDS011;64732;56.314;44.068;2024-03-02T11:40:27;42.40;;;21.65;;
76035;SDS011;64732;56.314;44.068;2024-03-02T11:42:51;42.10;;;21.92;;
76035;SDS011;64732;56.314;44.068;2024-03-02T11:45:11;42.70;;;19.75;;
76035;SDS011;64732;56.314;44.068;2024-03-02T11:47:32;38.05;;;19.95;;
76035;SDS011;64732;56.314;44.068;2024-03-02T11:49:53;42.53;;;21.05;;
76035;SDS011;64732;56.314;44.068;2024-03-02T11:52:14;48.83;;;21.23;;
76035;SDS011;64732;56.314;44.068;2024-03-02T11:54:34;43.75;;;20.38;;
76035;SDS011;64732;56.314;44.068;2024-03-02T11:57:00;40.60;;;20.33;;
76035;SDS011;64732;56.314;44.068;2024-03-02T11:59:24;43.70;;;21.42;;
76035;SDS011;64732;56.314;44.068;2024-03-02T12:01:45;42.95;;;20.88;;
76035;SDS011;64732;56.314;44.068;2024-03-02T12:04:06;45.25;;;20.35;;
76035;SDS011;64732;56.314;44.068;2024-03-02T12:06:27;46.75;;;23.20;;
76035;SDS011;64732;56.314;44.068;2024-03-02T12:08:51;40.95;;;20.15;;
76035;SDS011;64732;56.314;44.068;2024-03-02T12:11:14;43.45;;;20.73;;
76035;SDS011;64732;56.314;44.068;2024-03-02T12:13:34;48.75;;;20.80;;
76035;SDS011;64732;56.314;44.068;2024-03-02T12:15:57;43.80;;;21.17;;
76035;SDS011;64732;56.314;44.068;2024-03-02T12:18:18;44.63;;;21.90;;
76035;SDS011;64732;56.314;44.068;2024-03-02T12:20:39;44.67;;;22.92;;
76035;SDS011;64732;56.314;44.068;2024-03-02T12:23:01;40.67;;;21.95;;
76035;SDS011;64732;56.314;44.068;2024-03-02T12:25:22;50.90;;;22.75;;
76035;SDS011;64732;56.314;44.068;2024-03-02T12:27:43;49.58;;;25.02;;
76035;SDS011;64732;56.314;44.068;2024-03-02T12:30:05;47.15;;;22.65;;
76035;SDS011;64732;56.314;44.068;2024-03-02T12:32:28;46.05;;;23.63;;
76035;SDS011;64732;56.314;44.068;2024-03-02T12:34:50;47.28;;;22.90;;
76035;SDS011;64732;56.314;44.068;2024-03-02T12:37:11;51.53;;;24.17;;
76035;SDS011;64732;56.314;44.068;2024-03-02T12:39:32;47.17;;;22.80;;
76035;SDS011;64732;56.314;44.068;2024-03-02T12:41:53;46.67;;;22.42;;
76035;SDS011;64732;56.314;44.068;2024-03-02T12:44:13;43.05;;;19.90;;
76035;SDS011;64732;56.314;44.068;2024-03-02T12:46:34;48.58;;;22.67;;
76035;SDS011;64732;56.314;44.068;2024-03-02T12:48:57;48.10;;;22.25;;
76035;SDS011;64732;56.314;44.068;2024-03-02T12:51:18;49.67;;;22.20;;
76035;SDS011;64732;56.314;44.068;2024-03-02T12:53:39;45.67;;;20.95;;
76035;SDS011;64732;56.314;44.068;2024-03-02T12:55:59;38.47;;;19.90;;
76035;SDS011;64732;56.314;44.068;2024-03-02T12:58:21;38.30;;;19.45;;
76035;SDS011;64732;56.314;44.068;2024-03-02T13:00:42;42.88;;;20.45;;
76035;SDS011;64732;56.314;44.068;2024-03-02T13:03:03;41.50;;;20.17;;
76035;SDS011;64732;56.314;44.068;2024-03-02T13:05:27;40.55;;;19.23;;
76035;SDS011;64732;56.314;44.068;2024-03-02T13:07:50;38.42;;;20.13;;
76035;SDS011;64732;56.314;44.068;2024-03-02T13:10:10;40.95;;;20.23;;
76035;SDS011;64732;56.314;44.068;2024-03-02T13:12:32;38.88;;;18.70;;
76035;SDS011;64732;56.314;44.068;2024-03-02T13:14:53;36.95;;;18.35;;
76035;SDS011;64732;56.314;44.068;2024-03-02T13:17:14;38.15;;;19.88;;
76035;SDS011;64732;56.314;44.068;2024-03-02T13:19:35;36.92;;;18.50;;
76035;SDS011;64732;56.314;44.068;2024-03-02T13:21:59;30.90;;;15.60;;
76035;SDS011;64732;56.314;44.068;2024-03-02T13:24:20;32.00;;;16.50;;
76035;SDS011;64732;56.314;44.068;2024-03-02T13:26:40;29.73;;;15.70;;
76035;SDS011;64732;56.314;44.068;2024-03-02T13:29:01;31.75;;;16.40;;
76035;SDS011;64732;56.314;44.068;2024-03-02T13:31:22;41.85;;;20.75;;